sensor_id;sensor_type;location;lat;lon;timestamp;P1;durP1;ratioP1;P2;durP2;ratioP2
15952;SDS011;8075;47.766;8.846;2023-02-01T00:01:36;5.35;;;4.60;;
15952;SDS011;8075;47.766;8.846;2023-02-01T00:04:02;5.40;;;4.90;;
15952;SDS011;8075;47.766;8.846;2023-02-01T00:06:28;5.43;;;4.93;;
15952;SDS011;8075;47.766;8.846;2023-02-01T00:08:54;4.82;;;4.32;;
15952;SDS011;8075;47.766;8.846;2023-02-01T00:11:21;5.45;;;4.95;;
15952;SDS011;8075;47.766;8.846;2023-02-01T00:13:48;4.95;;;4.55;;
15952;SDS011;8075;47.766;8.846;2023-02-01T00:16:15;5.38;;;4.88;;
15952;SDS011;8075;47.766;8.846;2023-02-01T00:18:42;4.93;;;4.53;;
15952;SDS011;8075;47.766;8.846;2023-02-01T00:21:09;5.72;;;5.13;;
15952;SDS011;8075;47.766;8.846;2023-02-01T00:23:36;5.72;;;4.45;;
15952;SDS011;8075;47.766;8.846;2023-02-01T00:26:04;5.32;;;4.82;;
15952;SDS011;8075;47.766;8.846;2023-02-01T00:28:31;5.88;;;4.70;;
15952;SDS011;8075;47.766;8.846;2023-02-01T00:31:00;5.70;;;4.53;;
15952;SDS011;8075;47.766;8.846;2023-02-01T00:33:27;5.40;;;4.90;;
15952;SDS011;8075;47.766;8.846;2023-02-01T00:35:57;4.93;;;4.43;;
15952;SDS011;8075;47.766;8.846;2023-02-01T00:38:26;5.60;;;4.95;;
15952;SDS011;8075;47.766;8.846;2023-02-01T00:40:53;5.82;;;5.28;;
15952;SDS011;8075;47.766;8.846;2023-02-01T00:43:19;5.78;;;5.13;;
15952;SDS011;8075;47.766;8.846;2023-02-01T00:45:45;5.22;;;4.72;;
15952;SDS011;8075;47.766;8.846;2023-02-01T00:48:11;6.80;;;5.03;;
15952;SDS011;8075;47.766;8.846;2023-02-01T00:50:41;5.32;;;4.82;;
15952;SDS011;8075;47.766;8.846;2023-02-01T00:53:08;5.65;;;4.72;;
15952;SDS011;8075;47.766;8.846;2023-02-01T00:55:34;5.28;;;4.85;;
15952;SDS011;8075;47.766;8.846;2023-02-01T00:58:00;5.30;;;4.80;;
15952;SDS011;8075;47.766;8.846;2023-02-01T01:00:26;5.38;;;4.88;;
15952;SDS011;8075;47.766;8.846;2023-02-01T01:02:52;5.47;;;4.97;;
15952;SDS011;8075;47.766;8.846;2023-02-01T01:05:18;5.00;;;4.50;;
15952;SDS011;8075;47.766;8.846;2023-02-01T01:07:44;5.15;;;4.65;;
15952;SDS011;8075;47.766;8.846;2023-02-01T01:10:10;5.22;;;4.72;;
15952;SDS011;8075;47.766;8.846;2023-02-01T01:12:36;5.03;;;4.50;;
15952;SDS011;8075;47.766;8.846;2023-02-01T01:15:02;5.10;;;4.60;;
15952;SDS011;8075;47.766;8.846;2023-02-01T01:17:30;5.17;;;4.67;;
15952;SDS011;8075;47.766;8.846;2023-02-01T01:19:56;5.20;;;4.78;;
15952;SDS011;8075;47.766;8.846;2023-02-01T01:22:22;5.30;;;4.82;;
15952;SDS011;8075;47.766;8.846;2023-02-01T01:24:48;4.88;;;4.47;;
15952;SDS011;8075;47.766;8.846;2023-02-01T01:27:14;4.70;;;4.30;;
15952;SDS011;8075;47.766;8.846;2023-02-01T01:29:40;5.07;;;4.68;;
15952;SDS011;8075;47.766;8.846;2023-02-01T01:32:06;5.43;;;4.93;;
15952;SDS011;8075;47.766;8.846;2023-02-01T01:34:32;5.83;;;5.10;;
15952;SDS011;8075;47.766;8.846;2023-02-01T01:36:58;5.30;;;4.80;;
15952;SDS011;8075;47.766;8.846;2023-02-01T01:39:24;7.18;;;5.30;;
15952;SDS011;8075;47.766;8.846;2023-02-01T01:41:50;6.20;;;5.60;;
15952;SDS011;8075;47.766;8.846;2023-02-01T01:47:01;6.28;;;5.68;;
15952;SDS011;8075;47.766;8.846;2023-02-01T01:49:27;6.35;;;5.65;;
15952;SDS011;8075;47.766;8.846;2023-02-01T01:51:56;6.35;;;5.55;;
15952;SDS011;8075;47.766;8.846;2023-02-01T01:54:27;7.20;;;5.80;;
15952;SDS011;8075;47.766;8.846;2023-02-01T01:56:59;5.97;;;5.43;;
15952;SDS011;8075;47.766;8.846;2023-02-01T01:59:26;6.47;;;5.78;;
15952;SDS011;8075;47.766;8.846;2023-02-01T02:01:53;7.20;;;6.07;;
15952;SDS011;8075;47.766;8.846;2023-02-01T02:04:19;8.27;;;6.13;;
15952;SDS011;8075;47.766;8.846;2023-02-01T02:06:47;5.95;;;5.45;;
15952;SDS011;8075;47.766;8.846;2023-02-01T02:09:14;7.10;;;5.90;;
15952;SDS011;8075;47.766;8.846;2023-02-01T02:11:41;6.40;;;5.70;;
15952;SDS011;8075;47.766;8.846;2023-02-01T02:14:08;6.72;;;6.07;;
15952;SDS011;8075;47.766;8.846;2023-02-01T02:27:40;6.68;;;6.00;;
15952;SDS011;8075;47.766;8.846;2023-02-01T02:30:17;6.70;;;6.10;;
15952;SDS011;8075;47.766;8.846;2023-02-01T02:35:14;7.97;;;6.40;;
15952;SDS011;8075;47.766;8.846;2023-02-01T02:38:26;6.82;;;6.18;;
15952;SDS011;8075;47.766;8.846;2023-02-01T02:43:23;7.00;;;6.32;;
15952;SDS011;8075;47.766;8.846;2023-02-01T02:51:46;7.55;;;6.75;;
15952;SDS011;8075;47.766;8.846;2023-02-01T02:54:33;7.90;;;6.85;;
15952;SDS011;8075;47.766;8.846;2023-02-01T02:57:19;7.45;;;6.75;;
15952;SDS011;8075;47.766;8.846;2023-02-01T03:00:06;7.30;;;6.55;;
15952;SDS011;8075;47.766;8.846;2023-02-01T03:02:52;7.20;;;6.50;;
15952;SDS011;8075;47.766;8.846;2023-02-01T03:05:39;7.10;;;6.40;;
15952;SDS011;8075;47.766;8.846;2023-02-01T03:10:47;8.65;;;6.55;;
15952;SDS011;8075;47.766;8.846;2023-02-01T03:18:38;6.97;;;6.28;;
15952;SDS011;8075;47.766;8.846;2023-02-01T03:21:08;6.75;;;6.15;;
15952;SDS011;8075;47.766;8.846;2023-02-01T03:23:36;6.80;;;6.10;;
15952;SDS011;8075;47.766;8.846;2023-02-01T03:26:04;7.17;;;6.47;;
15952;SDS011;8075;47.766;8.846;2023-02-01T03:28:32;6.70;;;6.00;;
15952;SDS011;8075;47.766;8.846;2023-02-01T03:30:59;6.72;;;6.13;;
15952;SDS011;8075;47.766;8.846;2023-02-01T03:33:26;6.22;;;5.63;;
15952;SDS011;8075;47.766;8.846;2023-02-01T03:36:00;6.32;;;5.55;;
15952;SDS011;8075;47.766;8.846;2023-02-01T03:38:32;5.85;;;5.25;;
15952;SDS011;8075;47.766;8.846;2023-02-01T03:43:25;6.18;;;5.57;;
15952;SDS011;8075;47.766;8.846;2023-02-01T03:45:57;6.40;;;5.80;;
15952;SDS011;8075;47.766;8.846;2023-02-01T03:48:24;6.47;;;5.80;;
15952;SDS011;8075;47.766;8.846;2023-02-01T03:50:54;6.00;;;5.45;;
15952;SDS011;8075;47.766;8.846;2023-02-01T03:53:22;6.30;;;5.70;;
15952;SDS011;8075;47.766;8.846;2023-02-01T03:55:49;6.07;;;5.50;;
15952;SDS011;8075;47.766;8.846;2023-02-01T03:58:18;6.40;;;5.80;;
15952;SDS011;8075;47.766;8.846;2023-02-01T04:00:45;5.93;;;5.40;;
15952;SDS011;8075;47.766;8.846;2023-02-01T04:03:11;6.75;;;6.07;;
15952;SDS011;8075;47.766;8.846;2023-02-01T04:05:37;6.25;;;5.75;;
15952;SDS011;8075;47.766;8.846;2023-02-01T04:08:03;6.15;;;5.60;;
15952;SDS011;8075;47.766;8.846;2023-02-01T04:10:30;6.40;;;5.80;;
15952;SDS011;8075;47.766;8.846;2023-02-01T04:12:56;6.03;;;5.53;;
15952;SDS011;8075;47.766;8.846;2023-02-01T04:15:25;6.03;;;5.43;;
15952;SDS011;8075;47.766;8.846;2023-02-01T04:17:51;6.45;;;5.82;;
15952;SDS011;8075;47.766;8.846;2023-02-01T04:20:17;6.37;;;5.77;;
15952;SDS011;8075;47.766;8.846;2023-02-01T04:22:43;6.63;;;6.03;;
15952;SDS011;8075;47.766;8.846;2023-02-01T04:25:09;6.28;;;5.68;;
15952;SDS011;8075;47.766;8.846;2023-02-01T04:27:35;5.60;;;5.20;;
15952;SDS011;8075;47.766;8.846;2023-02-01T04:30:02;6.20;;;5.60;;
15952;SDS011;8075;47.766;8.846;2023-02-01T04:32:28;6.13;;;5.53;;
15952;SDS011;8075;47.766;8.846;2023-02-01T04:34:54;5.60;;;5.13;;
15952;SDS011;8075;47.766;8.846;2023-02-01T04:37:20;5.88;;;5.38;;
15952;SDS011;8075;47.766;8.846;2023-02-01T04:39:46;5.97;;;5.45;;
15952;SDS011;8075;47.766;8.846;2023-02-01T04:42:12;5.80;;;5.30;;
15952;SDS011;8075;47.766;8.846;2023-02-01T04:44:38;5.80;;;5.35;;
15952;SDS011;8075;47.766;8.846;2023-02-01T04:47:06;5.93;;;5.32;;
15952;SDS011;8075;47.766;8.846;2023-02-01T04:49:33;6.22;;;5.63;;
15952;SDS011;8075;47.766;8.846;2023-02-01T04:51:59;6.13;;;5.63;;
15952;SDS011;8075;47.766;8.846;2023-02-01T04:54:25;5.60;;;5.10;;
15952;SDS011;8075;47.766;8.846;2023-02-01T04:56:51;6.25;;;5.65;;
15952;SDS011;8075;47.766;8.846;2023-02-01T04:59:17;5.63;;;5.20;;
15952;SDS011;8075;47.766;8.846;2023-02-01T05:01:43;6.60;;;5.90;;
15952;SDS011;8075;47.766;8.846;2023-02-01T05:04:09;6.57;;;5.97;;
15952;SDS011;8075;47.766;8.846;2023-02-01T05:06:35;6.82;;;5.68;;
15952;SDS011;8075;47.766;8.846;2023-02-01T05:09:01;6.47;;;5.53;;
15952;SDS011;8075;47.766;8.846;2023-02-01T05:11:27;6.68;;;6.05;;
15952;SDS011;8075;47.766;8.846;2023-02-01T05:14:11;6.47;;;5.88;;
15952;SDS011;8075;47.766;8.846;2023-02-01T05:16:37;6.55;;;5.95;;
15952;SDS011;8075;47.766;8.846;2023-02-01T05:19:03;7.00;;;6.30;;
15952;SDS011;8075;47.766;8.846;2023-02-01T05:21:29;7.15;;;6.45;;
15952;SDS011;8075;47.766;8.846;2023-02-01T05:23:55;6.63;;;6.03;;
15952;SDS011;8075;47.766;8.846;2023-02-01T05:26:44;7.18;;;6.47;;
15952;SDS011;8075;47.766;8.846;2023-02-01T05:29:11;7.05;;;6.40;;
15952;SDS011;8075;47.766;8.846;2023-02-01T05:31:37;6.45;;;5.85;;
15952;SDS011;8075;47.766;8.846;2023-02-01T05:34:04;6.68;;;6.00;;
15952;SDS011;8075;47.766;8.846;2023-02-01T05:36:30;6.75;;;6.15;;
15952;SDS011;8075;47.766;8.846;2023-02-01T05:38:56;7.50;;;6.53;;
15952;SDS011;8075;47.766;8.846;2023-02-01T05:41:22;6.78;;;6.18;;
15952;SDS011;8075;47.766;8.846;2023-02-01T05:43:48;6.63;;;6.13;;
15952;SDS011;8075;47.766;8.846;2023-02-01T05:46:14;6.75;;;6.13;;
15952;SDS011;8075;47.766;8.846;2023-02-01T05:48:40;8.85;;;7.95;;
15952;SDS011;8075;47.766;8.846;2023-02-01T05:51:06;8.88;;;8.07;;
15952;SDS011;8075;47.766;8.846;2023-02-01T05:53:33;9.18;;;7.53;;
15952;SDS011;8075;47.766;8.846;2023-02-01T05:55:59;8.48;;;7.68;;
15952;SDS011;8075;47.766;8.846;2023-02-01T05:58:25;14.68;;;11.73;;
15952;SDS011;8075;47.766;8.846;2023-02-01T06:00:51;9.75;;;8.75;;
15952;SDS011;8075;47.766;8.846;2023-02-01T06:03:17;8.90;;;7.68;;
15952;SDS011;8075;47.766;8.846;2023-02-01T06:05:43;9.05;;;7.88;;
15952;SDS011;8075;47.766;8.846;2023-02-01T06:08:10;7.03;;;6.43;;
15952;SDS011;8075;47.766;8.846;2023-02-01T06:10:36;7.20;;;6.45;;
15952;SDS011;8075;47.766;8.846;2023-02-01T06:13:02;7.30;;;6.60;;
15952;SDS011;8075;47.766;8.846;2023-02-01T06:15:28;7.27;;;6.53;;
15952;SDS011;8075;47.766;8.846;2023-02-01T06:17:54;7.40;;;6.75;;
15952;SDS011;8075;47.766;8.846;2023-02-01T06:20:20;8.15;;;7.07;;
15952;SDS011;8075;47.766;8.846;2023-02-01T06:22:46;7.28;;;6.57;;
15952;SDS011;8075;47.766;8.846;2023-02-01T06:25:12;7.07;;;6.37;;
15952;SDS011;8075;47.766;8.846;2023-02-01T06:27:38;7.07;;;6.45;;
15952;SDS011;8075;47.766;8.846;2023-02-01T06:30:05;7.28;;;6.47;;
15952;SDS011;8075;47.766;8.846;2023-02-01T06:32:31;7.05;;;6.40;;
15952;SDS011;8075;47.766;8.846;2023-02-01T06:34:57;7.10;;;6.35;;
15952;SDS011;8075;47.766;8.846;2023-02-01T06:37:25;7.72;;;6.93;;
15952;SDS011;8075;47.766;8.846;2023-02-01T06:39:54;7.32;;;6.63;;
15952;SDS011;8075;47.766;8.846;2023-02-01T06:42:20;7.65;;;6.95;;
15952;SDS011;8075;47.766;8.846;2023-02-01T06:44:46;7.68;;;6.90;;
15952;SDS011;8075;47.766;8.846;2023-02-01T06:47:12;7.88;;;7.18;;
15952;SDS011;8075;47.766;8.846;2023-02-01T06:49:38;7.43;;;6.72;;
15952;SDS011;8075;47.766;8.846;2023-02-01T06:52:05;7.78;;;7.07;;
15952;SDS011;8075;47.766;8.846;2023-02-01T06:54:31;7.80;;;7.00;;
15952;SDS011;8075;47.766;8.846;2023-02-01T06:56:58;7.40;;;6.73;;
15952;SDS011;8075;47.766;8.846;2023-02-01T06:59:24;8.95;;;6.95;;
15952;SDS011;8075;47.766;8.846;2023-02-01T07:01:50;7.67;;;6.97;;
15952;SDS011;8075;47.766;8.846;2023-02-01T07:04:16;7.25;;;6.55;;
15952;SDS011;8075;47.766;8.846;2023-02-01T07:06:42;7.40;;;6.70;;
15952;SDS011;8075;47.766;8.846;2023-02-01T07:09:08;7.88;;;7.18;;
15952;SDS011;8075;47.766;8.846;2023-02-01T07:11:37;8.07;;;7.38;;
15952;SDS011;8075;47.766;8.846;2023-02-01T07:14:06;7.97;;;7.20;;
15952;SDS011;8075;47.766;8.846;2023-02-01T07:16:32;8.60;;;7.80;;
15952;SDS011;8075;47.766;8.846;2023-02-01T07:18:58;8.90;;;8.10;;
15952;SDS011;8075;47.766;8.846;2023-02-01T07:21:24;8.90;;;8.05;;
15952;SDS011;8075;47.766;8.846;2023-02-01T07:23:52;9.32;;;8.50;;
15952;SDS011;8075;47.766;8.846;2023-02-01T07:26:18;9.15;;;8.25;;
15952;SDS011;8075;47.766;8.846;2023-02-01T07:28:44;9.73;;;8.82;;
15952;SDS011;8075;47.766;8.846;2023-02-01T07:31:12;11.00;;;9.88;;
15952;SDS011;8075;47.766;8.846;2023-02-01T07:33:40;11.43;;;10.32;;
15952;SDS011;8075;47.766;8.846;2023-02-01T07:36:06;10.68;;;9.77;;
15952;SDS011;8075;47.766;8.846;2023-02-01T07:38:33;12.20;;;11.13;;
15952;SDS011;8075;47.766;8.846;2023-02-01T07:41:03;11.75;;;10.65;;
15952;SDS011;8075;47.766;8.846;2023-02-01T07:43:30;12.45;;;11.45;;
15952;SDS011;8075;47.766;8.846;2023-02-01T07:45:56;13.10;;;11.85;;
15952;SDS011;8075;47.766;8.846;2023-02-01T07:48:23;13.73;;;12.40;;
15952;SDS011;8075;47.766;8.846;2023-02-01T07:50:56;13.30;;;12.00;;
15952;SDS011;8075;47.766;8.846;2023-02-01T07:53:23;14.27;;;13.07;;
15952;SDS011;8075;47.766;8.846;2023-02-01T07:55:49;14.13;;;12.70;;
15952;SDS011;8075;47.766;8.846;2023-02-01T07:58:15;14.48;;;13.20;;
15952;SDS011;8075;47.766;8.846;2023-02-01T08:00:41;15.07;;;13.68;;
15952;SDS011;8075;47.766;8.846;2023-02-01T08:03:25;14.18;;;12.88;;
15952;SDS011;8075;47.766;8.846;2023-02-01T08:05:55;15.60;;;14.10;;
15952;SDS011;8075;47.766;8.846;2023-02-01T08:08:21;14.65;;;13.35;;
15952;SDS011;8075;47.766;8.846;2023-02-01T08:10:47;14.80;;;13.50;;
15952;SDS011;8075;47.766;8.846;2023-02-01T08:13:13;14.13;;;12.83;;
15952;SDS011;8075;47.766;8.846;2023-02-01T08:15:39;13.82;;;12.48;;
15952;SDS011;8075;47.766;8.846;2023-02-01T08:18:05;13.83;;;12.43;;
15952;SDS011;8075;47.766;8.846;2023-02-01T08:20:31;13.88;;;12.60;;
15952;SDS011;8075;47.766;8.846;2023-02-01T08:22:59;12.70;;;11.57;;
15952;SDS011;8075;47.766;8.846;2023-02-01T08:25:28;12.55;;;11.27;;
15952;SDS011;8075;47.766;8.846;2023-02-01T08:27:54;13.00;;;11.80;;
15952;SDS011;8075;47.766;8.846;2023-02-01T08:30:20;12.30;;;11.20;;
15952;SDS011;8075;47.766;8.846;2023-02-01T08:32:47;12.43;;;11.13;;
15952;SDS011;8075;47.766;8.846;2023-02-01T08:35:13;11.60;;;10.55;;
15952;SDS011;8075;47.766;8.846;2023-02-01T08:37:39;11.95;;;10.75;;
15952;SDS011;8075;47.766;8.846;2023-02-01T08:40:05;12.15;;;10.90;;
15952;SDS011;8075;47.766;8.846;2023-02-01T08:42:31;12.40;;;11.10;;
15952;SDS011;8075;47.766;8.846;2023-02-01T08:45:19;12.27;;;11.07;;
15952;SDS011;8075;47.766;8.846;2023-02-01T08:47:46;12.77;;;11.48;;
15952;SDS011;8075;47.766;8.846;2023-02-01T08:50:12;12.95;;;11.75;;
15952;SDS011;8075;47.766;8.846;2023-02-01T08:52:38;12.68;;;11.48;;
15952;SDS011;8075;47.766;8.846;2023-02-01T08:55:05;13.75;;;12.45;;
15952;SDS011;8075;47.766;8.846;2023-02-01T08:57:31;14.05;;;12.75;;
15952;SDS011;8075;47.766;8.846;2023-02-01T08:59:57;13.60;;;12.35;;
15952;SDS011;8075;47.766;8.846;2023-02-01T09:02:24;14.20;;;12.80;;
15952;SDS011;8075;47.766;8.846;2023-02-01T09:04:51;14.48;;;13.02;;
15952;SDS011;8075;47.766;8.846;2023-02-01T09:07:17;15.05;;;13.55;;
15952;SDS011;8075;47.766;8.846;2023-02-01T09:09:44;14.73;;;13.32;;
15952;SDS011;8075;47.766;8.846;2023-02-01T09:12:10;15.37;;;13.77;;
15952;SDS011;8075;47.766;8.846;2023-02-01T09:14:36;15.40;;;13.90;;
15952;SDS011;8075;47.766;8.846;2023-02-01T09:17:02;15.77;;;14.13;;
15952;SDS011;8075;47.766;8.846;2023-02-01T09:19:30;16.58;;;14.88;;
15952;SDS011;8075;47.766;8.846;2023-02-01T09:21:56;16.27;;;14.65;;
15952;SDS011;8075;47.766;8.846;2023-02-01T09:24:22;17.05;;;15.05;;
15952;SDS011;8075;47.766;8.846;2023-02-01T09:26:48;17.55;;;15.73;;
15952;SDS011;8075;47.766;8.846;2023-02-01T09:29:14;16.70;;;14.98;;
15952;SDS011;8075;47.766;8.846;2023-02-01T09:31:40;15.70;;;14.10;;
15952;SDS011;8075;47.766;8.846;2023-02-01T09:34:06;16.10;;;14.43;;
15952;SDS011;8075;47.766;8.846;2023-02-01T09:36:32;15.15;;;13.75;;
15952;SDS011;8075;47.766;8.846;2023-02-01T09:38:58;15.57;;;14.07;;
15952;SDS011;8075;47.766;8.846;2023-02-01T09:44:04;16.00;;;14.40;;
15952;SDS011;8075;47.766;8.846;2023-02-01T09:46:32;16.77;;;15.07;;
15952;SDS011;8075;47.766;8.846;2023-02-01T09:49:04;16.88;;;15.07;;
15952;SDS011;8075;47.766;8.846;2023-02-01T09:51:32;16.05;;;14.45;;
15952;SDS011;8075;47.766;8.846;2023-02-01T09:54:03;16.85;;;14.55;;
15952;SDS011;8075;47.766;8.846;2023-02-01T09:56:38;16.23;;;14.63;;
15952;SDS011;8075;47.766;8.846;2023-02-01T09:59:09;14.75;;;13.32;;
15952;SDS011;8075;47.766;8.846;2023-02-01T10:01:36;15.88;;;13.98;;
15952;SDS011;8075;47.766;8.846;2023-02-01T10:04:04;14.57;;;13.17;;
15952;SDS011;8075;47.766;8.846;2023-02-01T10:22:37;13.65;;;12.25;;
15952;SDS011;8075;47.766;8.846;2023-02-01T10:27:41;13.70;;;12.25;;
15952;SDS011;8075;47.766;8.846;2023-02-01T10:32:39;13.98;;;12.35;;
15952;SDS011;8075;47.766;8.846;2023-02-01T10:35:18;13.23;;;11.90;;
15952;SDS011;8075;47.766;8.846;2023-02-01T10:37:48;13.15;;;11.85;;
15952;SDS011;8075;47.766;8.846;2023-02-01T10:40:24;12.95;;;11.75;;
15952;SDS011;8075;47.766;8.846;2023-02-01T10:42:52;11.88;;;10.77;;
15952;SDS011;8075;47.766;8.846;2023-02-01T10:45:20;12.75;;;11.40;;
15952;SDS011;8075;47.766;8.846;2023-02-01T10:47:47;12.07;;;10.98;;
15952;SDS011;8075;47.766;8.846;2023-02-01T10:50:28;11.98;;;10.85;;
15952;SDS011;8075;47.766;8.846;2023-02-01T10:57:58;11.80;;;10.60;;
15952;SDS011;8075;47.766;8.846;2023-02-01T11:00:25;11.07;;;9.98;;
15952;SDS011;8075;47.766;8.846;2023-02-01T11:02:51;11.43;;;10.32;;
15952;SDS011;8075;47.766;8.846;2023-02-01T11:05:17;11.48;;;10.48;;
15952;SDS011;8075;47.766;8.846;2023-02-01T11:07:50;11.83;;;10.63;;
15952;SDS011;8075;47.766;8.846;2023-02-01T11:10:38;12.82;;;10.35;;
15952;SDS011;8075;47.766;8.846;2023-02-01T11:13:08;10.98;;;9.88;;
15952;SDS011;8075;47.766;8.846;2023-02-01T11:15:38;11.60;;;10.50;;
15952;SDS011;8075;47.766;8.846;2023-02-01T11:18:15;11.32;;;10.23;;
15952;SDS011;8075;47.766;8.846;2023-02-01T11:20:42;11.38;;;10.35;;
15952;SDS011;8075;47.766;8.846;2023-02-01T11:23:26;11.68;;;10.50;;
15952;SDS011;8075;47.766;8.846;2023-02-01T11:25:54;11.27;;;9.63;;
15952;SDS011;8075;47.766;8.846;2023-02-01T11:28:21;10.85;;;9.85;;
15952;SDS011;8075;47.766;8.846;2023-02-01T11:30:48;10.27;;;9.37;;
15952;SDS011;8075;47.766;8.846;2023-02-01T11:33:16;13.00;;;8.70;;
15952;SDS011;8075;47.766;8.846;2023-02-01T11:35:43;9.80;;;8.88;;
15952;SDS011;8075;47.766;8.846;2023-02-01T11:38:32;11.02;;;9.82;;
15952;SDS011;8075;47.766;8.846;2023-02-01T11:41:21;9.98;;;8.98;;
15952;SDS011;8075;47.766;8.846;2023-02-01T11:43:59;9.85;;;8.82;;
15952;SDS011;8075;47.766;8.846;2023-02-01T11:46:29;9.32;;;8.48;;
15952;SDS011;8075;47.766;8.846;2023-02-01T11:48:57;10.32;;;9.25;;
15952;SDS011;8075;47.766;8.846;2023-02-01T11:51:36;8.50;;;7.70;;
15952;SDS011;8075;47.766;8.846;2023-02-01T12:07:14;8.02;;;5.90;;
15952;SDS011;8075;47.766;8.846;2023-02-01T12:09:46;8.18;;;5.95;;
15952;SDS011;8075;47.766;8.846;2023-02-01T12:15:19;6.82;;;5.53;;
15952;SDS011;8075;47.766;8.846;2023-02-01T12:23:28;8.60;;;5.40;;
15952;SDS011;8075;47.766;8.846;2023-02-01T12:35:53;5.20;;;3.22;;
15952;SDS011;8075;47.766;8.846;2023-02-01T12:38:36;5.10;;;3.30;;
15952;SDS011;8075;47.766;8.846;2023-02-01T12:43:54;5.13;;;3.00;;
15952;SDS011;8075;47.766;8.846;2023-02-01T12:51:25;6.10;;;2.70;;
15952;SDS011;8075;47.766;8.846;2023-02-01T12:56:21;5.05;;;2.75;;
15952;SDS011;8075;47.766;8.846;2023-02-01T12:58:48;6.50;;;2.53;;
15952;SDS011;8075;47.766;8.846;2023-02-01T13:01:24;7.50;;;3.25;;
15952;SDS011;8075;47.766;8.846;2023-02-01T13:06:38;6.70;;;2.78;;
15952;SDS011;8075;47.766;8.846;2023-02-01T13:11:44;9.23;;;3.25;;
15952;SDS011;8075;47.766;8.846;2023-02-01T13:16:45;7.75;;;2.78;;
15952;SDS011;8075;47.766;8.846;2023-02-01T13:19:20;5.75;;;2.40;;
15952;SDS011;8075;47.766;8.846;2023-02-01T13:21:50;6.68;;;2.97;;
15952;SDS011;8075;47.766;8.846;2023-02-01T13:24:24;5.68;;;2.63;;
15952;SDS011;8075;47.766;8.846;2023-02-01T13:26:53;9.98;;;3.53;;
15952;SDS011;8075;47.766;8.846;2023-02-01T13:29:20;7.43;;;3.28;;
15952;SDS011;8075;47.766;8.846;2023-02-01T13:34:29;7.45;;;3.30;;
15952;SDS011;8075;47.766;8.846;2023-02-01T13:39:28;7.35;;;3.03;;
15952;SDS011;8075;47.766;8.846;2023-02-01T13:41:59;7.95;;;3.00;;
15952;SDS011;8075;47.766;8.846;2023-02-01T13:44:31;8.37;;;2.80;;
15952;SDS011;8075;47.766;8.846;2023-02-01T13:46:59;6.75;;;2.88;;
15952;SDS011;8075;47.766;8.846;2023-02-01T13:49:27;7.57;;;3.13;;
15952;SDS011;8075;47.766;8.846;2023-02-01T13:51:55;7.43;;;2.95;;
15952;SDS011;8075;47.766;8.846;2023-02-01T13:56:50;9.27;;;3.17;;
15952;SDS011;8075;47.766;8.846;2023-02-01T14:02:35;6.68;;;2.85;;
15952;SDS011;8075;47.766;8.846;2023-02-01T14:04:48;7.57;;;3.10;;
15952;SDS011;8075;47.766;8.846;2023-02-01T14:07:18;6.93;;;3.03;;
15952;SDS011;8075;47.766;8.846;2023-02-01T14:09:45;9.88;;;3.30;;
15952;SDS011;8075;47.766;8.846;2023-02-01T14:12:58;7.00;;;3.00;;
15952;SDS011;8075;47.766;8.846;2023-02-01T14:17:46;8.13;;;3.05;;
15952;SDS011;8075;47.766;8.846;2023-02-01T14:23:01;9.20;;;3.07;;
15952;SDS011;8075;47.766;8.846;2023-02-01T14:25:32;7.00;;;2.83;;
15952;SDS011;8075;47.766;8.846;2023-02-01T14:27:58;7.85;;;3.17;;
15952;SDS011;8075;47.766;8.846;2023-02-01T14:30:24;8.23;;;2.97;;
15952;SDS011;8075;47.766;8.846;2023-02-01T14:32:50;9.10;;;2.80;;
15952;SDS011;8075;47.766;8.846;2023-02-01T14:35:20;8.73;;;2.95;;
15952;SDS011;8075;47.766;8.846;2023-02-01T14:37:47;8.88;;;3.60;;
15952;SDS011;8075;47.766;8.846;2023-02-01T14:40:16;8.43;;;3.63;;
15952;SDS011;8075;47.766;8.846;2023-02-01T14:42:45;10.82;;;3.90;;
15952;SDS011;8075;47.766;8.846;2023-02-01T14:47:50;9.20;;;3.60;;
15952;SDS011;8075;47.766;8.846;2023-02-01T14:58:14;8.15;;;3.20;;
15952;SDS011;8075;47.766;8.846;2023-02-01T15:00:47;8.82;;;3.30;;
15952;SDS011;8075;47.766;8.846;2023-02-01T15:05:56;6.97;;;3.27;;
15952;SDS011;8075;47.766;8.846;2023-02-01T15:08:27;8.18;;;3.50;;
15952;SDS011;8075;47.766;8.846;2023-02-01T15:10:54;8.27;;;3.70;;
15952;SDS011;8075;47.766;8.846;2023-02-01T15:13:22;11.18;;;3.63;;
15952;SDS011;8075;47.766;8.846;2023-02-01T15:16:01;9.05;;;3.70;;
15952;SDS011;8075;47.766;8.846;2023-02-01T15:18:28;9.02;;;5.00;;
15952;SDS011;8075;47.766;8.846;2023-02-01T15:20:58;14.77;;;5.80;;
15952;SDS011;8075;47.766;8.846;2023-02-01T15:23:24;11.52;;;4.70;;
15952;SDS011;8075;47.766;8.846;2023-02-01T15:25:50;10.68;;;4.40;;
15952;SDS011;8075;47.766;8.846;2023-02-01T15:28:17;10.95;;;4.43;;
15952;SDS011;8075;47.766;8.846;2023-02-01T15:30:59;9.75;;;3.88;;
15952;SDS011;8075;47.766;8.846;2023-02-01T15:33:26;7.00;;;3.60;;
15952;SDS011;8075;47.766;8.846;2023-02-01T15:43:25;9.77;;;3.63;;
15952;SDS011;8075;47.766;8.846;2023-02-01T15:45:52;8.98;;;3.30;;
15952;SDS011;8075;47.766;8.846;2023-02-01T15:48:22;8.63;;;2.83;;
15952;SDS011;8075;47.766;8.846;2023-02-01T15:50:48;7.15;;;3.30;;
15952;SDS011;8075;47.766;8.846;2023-02-01T15:53:19;10.88;;;3.05;;
15952;SDS011;8075;47.766;8.846;2023-02-01T15:55:46;8.98;;;3.15;;
15952;SDS011;8075;47.766;8.846;2023-02-01T16:00:43;10.45;;;3.42;;
15952;SDS011;8075;47.766;8.846;2023-02-01T16:06:09;9.90;;;2.85;;
15952;SDS011;8075;47.766;8.846;2023-02-01T16:08:35;8.05;;;3.25;;
15952;SDS011;8075;47.766;8.846;2023-02-01T16:13:28;7.53;;;3.03;;
15952;SDS011;8075;47.766;8.846;2023-02-01T16:15:54;7.78;;;3.45;;
15952;SDS011;8075;47.766;8.846;2023-02-01T16:18:20;9.87;;;3.53;;
15952;SDS011;8075;47.766;8.846;2023-02-01T16:20:47;10.55;;;3.58;;
15952;SDS011;8075;47.766;8.846;2023-02-01T16:23:13;7.85;;;3.50;;
15952;SDS011;8075;47.766;8.846;2023-02-01T16:25:39;9.98;;;3.70;;
15952;SDS011;8075;47.766;8.846;2023-02-01T16:28:05;10.03;;;3.73;;
15952;SDS011;8075;47.766;8.846;2023-02-01T16:30:32;10.65;;;4.25;;
15952;SDS011;8075;47.766;8.846;2023-02-01T16:32:58;8.20;;;3.33;;
15952;SDS011;8075;47.766;8.846;2023-02-01T16:35:26;12.07;;;3.75;;
15952;SDS011;8075;47.766;8.846;2023-02-01T16:37:53;7.80;;;4.18;;
15952;SDS011;8075;47.766;8.846;2023-02-01T16:40:19;9.63;;;3.25;;
15952;SDS011;8075;47.766;8.846;2023-02-01T16:42:50;9.93;;;4.60;;
15952;SDS011;8075;47.766;8.846;2023-02-01T16:45:16;10.83;;;4.63;;
15952;SDS011;8075;47.766;8.846;2023-02-01T16:47:45;13.18;;;4.35;;
15952;SDS011;8075;47.766;8.846;2023-02-01T16:50:16;9.65;;;3.38;;
15952;SDS011;8075;47.766;8.846;2023-02-01T16:52:43;8.50;;;3.97;;
15952;SDS011;8075;47.766;8.846;2023-02-01T16:55:13;8.60;;;3.50;;
15952;SDS011;8075;47.766;8.846;2023-02-01T16:57:39;8.67;;;3.47;;
15952;SDS011;8075;47.766;8.846;2023-02-01T17:00:05;9.73;;;3.65;;
15952;SDS011;8075;47.766;8.846;2023-02-01T17:02:32;9.50;;;3.15;;
15952;SDS011;8075;47.766;8.846;2023-02-01T17:04:58;10.50;;;3.85;;
15952;SDS011;8075;47.766;8.846;2023-02-01T17:07:24;9.32;;;4.20;;
15952;SDS011;8075;47.766;8.846;2023-02-01T17:09:51;10.57;;;3.40;;
15952;SDS011;8075;47.766;8.846;2023-02-01T17:12:22;10.05;;;3.15;;
15952;SDS011;8075;47.766;8.846;2023-02-01T17:14:48;8.38;;;3.70;;
15952;SDS011;8075;47.766;8.846;2023-02-01T17:17:15;11.03;;;3.53;;
15952;SDS011;8075;47.766;8.846;2023-02-01T17:19:41;9.65;;;3.50;;
15952;SDS011;8075;47.766;8.846;2023-02-01T17:22:07;9.77;;;4.03;;
15952;SDS011;8075;47.766;8.846;2023-02-01T17:24:33;11.27;;;3.85;;
15952;SDS011;8075;47.766;8.846;2023-02-01T17:26:59;9.68;;;3.70;;
15952;SDS011;8075;47.766;8.846;2023-02-01T17:29:25;8.25;;;3.28;;
15952;SDS011;8075;47.766;8.846;2023-02-01T17:31:53;7.72;;;3.00;;
15952;SDS011;8075;47.766;8.846;2023-02-01T17:34:19;12.25;;;3.97;;
15952;SDS011;8075;47.766;8.846;2023-02-01T17:36:46;9.48;;;3.85;;
15952;SDS011;8075;47.766;8.846;2023-02-01T17:39:12;12.77;;;3.95;;
15952;SDS011;8075;47.766;8.846;2023-02-01T17:41:58;10.73;;;3.85;;